sensor_id;sensor_type;location;lat;lon;timestamp;pressure;altitude;pressure_sealevel;temperature;humidity
32875;BME280;40468;42.128;24.750;2023-03-12T00:01:18;98632.25;;;7.97;58.38
32875;BME280;40468;42.128;24.750;2023-03-12T00:02:50;98638.09;;;8.01;58.42
32875;BME280;40468;42.128;24.750;2023-03-12T00:04:21;98635.34;;;8.04;58.27
32875;BME280;40468;42.128;24.750;2023-03-12T00:05:53;98631.94;;;8.03;57.70
32875;BME280;40468;42.128;24.750;2023-03-12T00:07:25;98644.81;;;8.05;57.86
32875;BME280;40468;42.128;24.750;2023-03-12T00:08:56;98637.94;;;8.04;57.26
32875;BME280;40468;42.128;24.750;2023-03-12T00:10:29;98644.81;;;8.05;57.09
32875;BME280;40468;42.128;24.750;2023-03-12T00:12:00;98642.28;;;8.03;56.55
32875;BME280;40468;42.128;24.750;2023-03-12T00:13:31;98645.81;;;8.02;55.96
32875;BME280;40468;42.128;24.750;2023-03-12T00:15:03;98643.28;;;8.01;55.90
32875;BME280;40468;42.128;24.750;2023-03-12T00:16:35;98639.09;;;7.98;55.67
32875;BME280;40468;42.128;24.750;2023-03-12T00:18:07;98645.13;;;7.98;55.26
32875;BME280;40468;42.128;24.750;2023-03-12T00:19:38;98652.84;;;8.00;55.43
32875;BME280;40468;42.128;24.750;2023-03-12T00:21:10;98650.25;;;8.00;55.07
32875;BME280;40468;42.128;24.750;2023-03-12T00:22:41;98644.22;;;8.00;55.01
32875;BME280;40468;42.128;24.750;2023-03-12T00:24:13;98656.25;;;8.01;55.16
32875;BME280;40468;42.128;24.750;2023-03-12T00:25:47;98652.84;;;8.00;55.05
32875;BME280;40468;42.128;24.750;2023-03-12T00:27:17;98649.47;;;7.98;55.44
32875;BME280;40468;42.128;24.750;2023-03-12T00:28:49;98645.38;;;7.94;55.81
32875;BME280;40468;42.128;24.750;2023-03-12T00:30:21;98644.63;;;7.92;55.98
32875;BME280;40468;42.128;24.750;2023-03-12T00:31:53;98643.03;;;7.89;56.21
32875;BME280;40468;42.128;24.750;2023-03-12T00:33:24;98634.56;;;7.86;56.62
32875;BME280;40468;42.128;24.750;2023-03-12T00:34:56;98646.09;;;7.80;56.73
32875;BME280;40468;42.128;24.750;2023-03-12T00:36:28;98655.72;;;7.78;56.47
32875;BME280;40468;42.128;24.750;2023-03-12T00:38:00;98645.59;;;7.73;56.01
32875;BME280;40468;42.128;24.750;2023-03-12T00:39:32;98648.50;;;7.67;56.06
32875;BME280;40468;42.128;24.750;2023-03-12T00:41:05;98646.06;;;7.64;56.00
32875;BME280;40468;42.128;24.750;2023-03-12T00:42:36;98644.63;;;7.59;56.10
32875;BME280;40468;42.128;24.750;2023-03-12T00:44:07;98652.47;;;7.57;56.36
32875;BME280;40468;42.128;24.750;2023-03-12T00:45:39;98642.25;;;7.54;56.39
32875;BME280;40468;42.128;24.750;2023-03-12T00:47:11;98651.13;;;7.50;56.29
32875;BME280;40468;42.128;24.750;2023-03-12T00:48:43;98649.50;;;7.47;56.45
32875;BME280;40468;42.128;24.750;2023-03-12T00:50:15;98641.91;;;7.44;56.28
32875;BME280;40468;42.128;24.750;2023-03-12T00:51:47;98635.28;;;7.39;56.21
32875;BME280;40468;42.128;24.750;2023-03-12T00:53:18;98646.63;;;7.36;56.22
32875;BME280;40468;42.128;24.750;2023-03-12T00:54:50;98644.28;;;7.32;56.22
32875;BME280;40468;42.128;24.750;2023-03-12T00:56:22;98635.59;;;7.33;56.30
32875;BME280;40468;42.128;24.750;2023-03-12T00:57:53;98641.75;;;7.30;56.21
32875;BME280;40468;42.128;24.750;2023-03-12T00:59:25;98652.25;;;7.27;55.99
32875;BME280;40468;42.128;24.750;2023-03-12T01:00:57;98642.22;;;7.21;55.86
32875;BME280;40468;42.128;24.750;2023-03-12T01:02:28;98649.31;;;7.17;55.43
32875;BME280;40468;42.128;24.750;2023-03-12T01:04:00;98643.50;;;7.12;55.41
32875;BME280;40468;42.128;24.750;2023-03-12T01:05:31;98663.47;;;7.10;55.41
32875;BME280;40468;42.128;24.750;2023-03-12T01:07:06;98657.59;;;7.06;54.96
32875;BME280;40468;42.128;24.750;2023-03-12T01:08:38;98666.38;;;7.04;54.50
32875;BME280;40468;42.128;24.750;2023-03-12T01:10:11;98657.00;;;7.01;54.38
32875;BME280;40468;42.128;24.750;2023-03-12T01:11:44;98648.38;;;7.01;54.16
32875;BME280;40468;42.128;24.750;2023-03-12T01:13:15;98644.06;;;7.01;54.02
32875;BME280;40468;42.128;24.750;2023-03-12T01:14:47;98662.03;;;7.04;53.68
32875;BME280;40468;42.128;24.750;2023-03-12T01:16:19;98662.03;;;7.04;53.19
32875;BME280;40468;42.128;24.750;2023-03-12T01:17:51;98653.63;;;6.99;52.84
32875;BME280;40468;42.128;24.750;2023-03-12T01:19:21;98655.94;;;7.05;52.59
32875;BME280;40468;42.128;24.750;2023-03-12T01:20:53;98664.53;;;7.06;52.18
32875;BME280;40468;42.128;24.750;2023-03-12T01:22:25;98670.69;;;7.03;51.71
32875;BME280;40468;42.128;24.750;2023-03-12T01:23:55;98656.06;;;7.02;51.71
32875;BME280;40468;42.128;24.750;2023-03-12T01:25:27;98657.84;;;7.02;51.42
32875;BME280;40468;42.128;24.750;2023-03-12T01:27:00;98657.88;;;7.00;51.29
32875;BME280;40468;42.128;24.750;2023-03-12T01:28:32;98662.19;;;7.01;51.21
32875;BME280;40468;42.128;24.750;2023-03-12T01:30:04;98669.84;;;7.03;51.08
32875;BME280;40468;42.128;24.750;2023-03-12T01:31:36;98676.94;;;6.99;50.81
32875;BME280;40468;42.128;24.750;2023-03-12T01:33:07;98673.66;;;6.96;50.48
32875;BME280;40468;42.128;24.750;2023-03-12T01:34:39;98674.66;;;6.93;50.18
32875;BME280;40468;42.128;24.750;2023-03-12T01:36:14;98681.63;;;6.91;50.16
32875;BME280;40468;42.128;24.750;2023-03-12T01:37:46;98679.13;;;6.90;49.99
32875;BME280;40468;42.128;24.750;2023-03-12T01:39:18;98692.97;;;6.89;49.84
32875;BME280;40468;42.128;24.750;2023-03-12T01:40:49;98698.28;;;6.86;49.89
32875;BME280;40468;42.128;24.750;2023-03-12T01:42:22;98701.13;;;6.81;49.33
32875;BME280;40468;42.128;24.750;2023-03-12T01:43:54;98685.75;;;6.78;49.35
32875;BME280;40468;42.128;24.750;2023-03-12T01:47:15;98708.31;;;6.74;48.70
32875;BME280;40468;42.128;24.750;2023-03-12T01:48:47;98729.00;;;6.74;48.77
32875;BME280;40468;42.128;24.750;2023-03-12T01:50:19;98715.38;;;6.71;48.13
32875;BME280;40468;42.128;24.750;2023-03-12T01:51:51;98725.03;;;6.67;48.25
32875;BME280;40468;42.128;24.750;2023-03-12T01:53:25;98721.75;;;6.64;48.12
32875;BME280;40468;42.128;24.750;2023-03-12T01:54:56;98740.00;;;6.60;48.16
32875;BME280;40468;42.128;24.750;2023-03-12T01:56:31;98733.13;;;6.59;48.41
32875;BME280;40468;42.128;24.750;2023-03-12T01:58:04;98737.63;;;6.56;48.53
32875;BME280;40468;42.128;24.750;2023-03-12T01:59:38;98738.53;;;6.55;48.71
32875;BME280;40468;42.128;24.750;2023-03-12T02:01:13;98743.78;;;6.53;48.58
32875;BME280;40468;42.128;24.750;2023-03-12T02:02:45;98740.44;;;6.51;48.82
32875;BME280;40468;42.128;24.750;2023-03-12T02:04:17;98748.25;;;6.50;48.95
32875;BME280;40468;42.128;24.750;2023-03-12T02:05:50;98753.41;;;6.50;48.80
32875;BME280;40468;42.128;24.750;2023-03-12T02:07:22;98755.25;;;6.48;48.74
32875;BME280;40468;42.128;24.750;2023-03-12T02:08:54;98762.28;;;6.44;48.46
32875;BME280;40468;42.128;24.750;2023-03-12T02:10:26;98765.09;;;6.40;48.57
32875;BME280;40468;42.128;24.750;2023-03-12T02:11:58;98747.97;;;6.37;48.55
32875;BME280;40468;42.128;24.750;2023-03-12T02:13:31;98741.03;;;6.37;48.76
32875;BME280;40468;42.128;24.750;2023-03-12T02:15:02;98752.44;;;6.33;48.41
32875;BME280;40468;42.128;24.750;2023-03-12T02:16:34;98767.97;;;6.33;48.69
32875;BME280;40468;42.128;24.750;2023-03-12T02:18:06;98774.84;;;6.33;48.54
32875;BME280;40468;42.128;24.750;2023-03-12T02:19:40;98774.94;;;6.31;48.42
32875;BME280;40468;42.128;24.750;2023-03-12T02:21:15;98767.31;;;6.28;48.32
32875;BME280;40468;42.128;24.750;2023-03-12T02:22:50;98775.22;;;6.25;48.56
32875;BME280;40468;42.128;24.750;2023-03-12T02:24:26;98779.47;;;6.26;48.48
32875;BME280;40468;42.128;24.750;2023-03-12T02:26:02;98783.81;;;6.26;48.66
32875;BME280;40468;42.128;24.750;2023-03-12T02:27:33;98783.16;;;6.21;48.59
32875;BME280;40468;42.128;24.750;2023-03-12T02:29:07;98797.19;;;6.15;48.87
32875;BME280;40468;42.128;24.750;2023-03-12T02:30:40;98792.94;;;6.14;48.93
32875;BME280;40468;42.128;24.750;2023-03-12T02:32:14;98799.91;;;6.12;48.95
32875;BME280;40468;42.128;24.750;2023-03-12T02:33:47;98801.78;;;6.08;49.14
32875;BME280;40468;42.128;24.750;2023-03-12T02:35:19;98806.19;;;6.06;49.18
32875;BME280;40468;42.128;24.750;2023-03-12T02:36:51;98804.50;;;6.05;49.41
32875;BME280;40468;42.128;24.750;2023-03-12T02:38:34;98814.84;;;6.05;49.43
32875;BME280;40468;42.128;24.750;2023-03-12T02:40:09;98815.75;;;6.04;49.40
32875;BME280;40468;42.128;24.750;2023-03-12T02:41:47;98818.34;;;6.04;49.39
32875;BME280;40468;42.128;24.750;2023-03-12T02:43:19;98816.78;;;6.00;49.38
32875;BME280;40468;42.128;24.750;2023-03-12T02:44:51;98812.59;;;5.98;49.42
32875;BME280;40468;42.128;24.750;2023-03-12T02:46:22;98816.16;;;5.95;49.32
32875;BME280;40468;42.128;24.750;2023-03-12T02:47:54;98810.06;;;5.96;49.49
32875;BME280;40468;42.128;24.750;2023-03-12T02:49:27;98815.38;;;5.91;49.48
32875;BME280;40468;42.128;24.750;2023-03-12T02:51:00;98817.22;;;5.89;49.43
32875;BME280;40468;42.128;24.750;2023-03-12T02:52:32;98815.59;;;5.87;49.52
32875;BME280;40468;42.128;24.750;2023-03-12T02:54:05;98815.63;;;5.85;49.48
32875;BME280;40468;42.128;24.750;2023-03-12T02:55:37;98819.09;;;5.86;49.49
32875;BME280;40468;42.128;24.750;2023-03-12T02:57:09;98813.13;;;5.84;49.50
32875;BME280;40468;42.128;24.750;2023-03-12T02:58:41;98823.50;;;5.82;49.57
32875;BME280;40468;42.128;24.750;2023-03-12T03:00:12;98835.69;;;5.80;49.54
32875;BME280;40468;42.128;24.750;2023-03-12T03:01:45;98833.13;;;5.79;49.51
32875;BME280;40468;42.128;24.750;2023-03-12T03:03:16;98835.84;;;5.76;49.42
32875;BME280;40468;42.128;24.750;2023-03-12T03:04:48;98831.66;;;5.73;49.53
32875;BME280;40468;42.128;24.750;2023-03-12T03:06:20;98844.69;;;5.70;49.45
32875;BME280;40468;42.128;24.750;2023-03-12T03:07:51;98831.97;;;5.65;49.54
32875;BME280;40468;42.128;24.750;2023-03-12T03:09:23;98840.59;;;5.64;49.49
32875;BME280;40468;42.128;24.750;2023-03-12T03:10:55;98841.53;;;5.63;49.45
32875;BME280;40468;42.128;24.750;2023-03-12T03:12:28;98850.19;;;5.62;49.55
32875;BME280;40468;42.128;24.750;2023-03-12T03:13:59;98852.75;;;5.62;49.51
32875;BME280;40468;42.128;24.750;2023-03-12T03:15:33;98855.47;;;5.59;49.28
32875;BME280;40468;42.128;24.750;2023-03-12T03:17:04;98857.25;;;5.57;49.19
32875;BME280;40468;42.128;24.750;2023-03-12T03:18:36;98858.19;;;5.56;49.07
32875;BME280;40468;42.128;24.750;2023-03-12T03:20:07;98865.00;;;5.57;49.13
32875;BME280;40468;42.128;24.750;2023-03-12T03:21:40;98863.34;;;5.56;48.90
32875;BME280;40468;42.128;24.750;2023-03-12T03:23:13;98869.34;;;5.57;48.82
32875;BME280;40468;42.128;24.750;2023-03-12T03:24:45;98876.19;;;5.58;48.79
32875;BME280;40468;42.128;24.750;2023-03-12T03:26:17;98875.34;;;5.57;48.65
32875;BME280;40468;42.128;24.750;2023-03-12T03:27:51;98875.28;;;5.59;48.62
32875;BME280;40468;42.128;24.750;2023-03-12T03:29:23;98866.69;;;5.58;48.77
32875;BME280;40468;42.128;24.750;2023-03-12T03:30:56;98881.31;;;5.59;48.62
32875;BME280;40468;42.128;24.750;2023-03-12T03:32:27;98884.75;;;5.58;48.60
32875;BME280;40468;42.128;24.750;2023-03-12T03:33:59;98883.88;;;5.59;48.62
32875;BME280;40468;42.128;24.750;2023-03-12T03:35:32;98885.66;;;5.57;48.41
32875;BME280;40468;42.128;24.750;2023-03-12T03:37:04;98892.50;;;5.58;48.48
32875;BME280;40468;42.128;24.750;2023-03-12T03:38:36;98898.50;;;5.59;48.33
32875;BME280;40468;42.128;24.750;2023-03-12T03:40:08;98906.34;;;5.57;48.19
32875;BME280;40468;42.128;24.750;2023-03-12T03:41:41;98907.28;;;5.55;48.13
32875;BME280;40468;42.128;24.750;2023-03-12T03:43:14;98901.41;;;5.51;48.17
32875;BME280;40468;42.128;24.750;2023-03-12T03:44:46;98911.75;;;5.51;48.11
32875;BME280;40468;42.128;24.750;2023-03-12T03:46:17;98906.63;;;5.50;48.10
32875;BME280;40468;42.128;24.750;2023-03-12T03:47:49;98902.38;;;5.48;48.16
32875;BME280;40468;42.128;24.750;2023-03-12T03:49:20;98921.28;;;5.49;48.09
32875;BME280;40468;42.128;24.750;2023-03-12T03:50:52;98910.03;;;5.50;47.98
32875;BME280;40468;42.128;24.750;2023-03-12T03:52:24;98922.13;;;5.50;47.82
32875;BME280;40468;42.128;24.750;2023-03-12T03:53:55;98926.44;;;5.49;47.82
32875;BME280;40468;42.128;24.750;2023-03-12T03:55:29;98922.94;;;5.50;47.80
32875;BME280;40468;42.128;24.750;2023-03-12T03:57:01;98918.56;;;5.52;47.79
32875;BME280;40468;42.128;24.750;2023-03-12T03:58:34;98922.78;;;5.55;47.85
32875;BME280;40468;42.128;24.750;2023-03-12T04:00:06;98921.88;;;5.56;47.59
32875;BME280;40468;42.128;24.750;2023-03-12T04:01:39;98921.94;;;5.54;47.31
32875;BME280;40468;42.128;24.750;2023-03-12T04:03:11;98921.13;;;5.54;47.25
32875;BME280;40468;42.128;24.750;2023-03-12T04:04:43;98920.19;;;5.55;47.18
32875;BME280;40468;42.128;24.750;2023-03-12T04:06:15;98924.53;;;5.54;46.94
32875;BME280;40468;42.128;24.750;2023-03-12T04:07:46;98910.78;;;5.54;46.80
32875;BME280;40468;42.128;24.750;2023-03-12T04:09:18;98925.44;;;5.53;46.79
32875;BME280;40468;42.128;24.750;2023-03-12T04:10:50;98927.94;;;5.55;46.80
32875;BME280;40468;42.128;24.750;2023-03-12T04:12:21;98933.06;;;5.56;46.83
32875;BME280;40468;42.128;24.750;2023-03-12T04:13:56;98938.16;;;5.58;47.01
32875;BME280;40468;42.128;24.750;2023-03-12T04:15:28;98936.53;;;5.55;46.89
32875;BME280;40468;42.128;24.750;2023-03-12T04:17:00;98943.53;;;5.53;46.82
32875;BME280;40468;42.128;24.750;2023-03-12T04:18:31;98945.31;;;5.51;46.77
32875;BME280;40468;42.128;24.750;2023-03-12T04:20:05;98949.53;;;5.54;46.78
32875;BME280;40468;42.128;24.750;2023-03-12T04:21:38;98943.41;;;5.56;46.93
32875;BME280;40468;42.128;24.750;2023-03-12T04:23:10;98954.63;;;5.55;46.90
32875;BME280;40468;42.128;24.750;2023-03-12T04:24:42;98944.34;;;5.54;46.87
32875;BME280;40468;42.128;24.750;2023-03-12T04:26:13;98936.59;;;5.54;47.01
32875;BME280;40468;42.128;24.750;2023-03-12T04:27:44;98948.69;;;5.53;46.98
32875;BME280;40468;42.128;24.750;2023-03-12T04:29:17;98948.78;;;5.50;46.98
32875;BME280;40468;42.128;24.750;2023-03-12T04:30:53;98948.00;;;5.48;47.11
32875;BME280;40468;42.128;24.750;2023-03-12T04:32:25;98946.38;;;5.45;47.17
32875;BME280;40468;42.128;24.750;2023-03-12T04:33:57;98950.81;;;5.42;47.20
32875;BME280;40468;42.128;24.750;2023-03-12T04:35:29;98956.03;;;5.40;47.45
32875;BME280;40468;42.128;24.750;2023-03-12T04:37:00;98953.53;;;5.39;47.59
32875;BME280;40468;42.128;24.750;2023-03-12T04:38:32;98950.09;;;5.38;47.53
32875;BME280;40468;42.128;24.750;2023-03-12T04:40:05;98957.94;;;5.35;47.62
32875;BME280;40468;42.128;24.750;2023-03-12T04:41:38;98954.59;;;5.33;47.65
32875;BME280;40468;42.128;24.750;2023-03-12T04:43:09;98953.88;;;5.30;47.60
32875;BME280;40468;42.128;24.750;2023-03-12T04:44:42;98963.41;;;5.28;47.57
32875;BME280;40468;42.128;24.750;2023-03-12T04:46:14;98960.88;;;5.26;47.41
32875;BME280;40468;42.128;24.750;2023-03-12T04:47:46;98962.63;;;5.25;47.35
32875;BME280;40468;42.128;24.750;2023-03-12T04:49:17;98971.19;;;5.26;47.29
32875;BME280;40468;42.128;24.750;2023-03-12T04:50:49;98974.63;;;5.27;47.19
32875;BME280;40468;42.128;24.750;2023-03-12T04:52:21;98972.91;;;5.27;47.13
32875;BME280;40468;42.128;24.750;2023-03-12T04:53:52;98976.44;;;5.24;47.24
32875;BME280;40468;42.128;24.750;2023-03-12T04:55:24;98990.16;;;5.25;47.13
32875;BME280;40468;42.128;24.750;2023-03-12T04:56:56;98984.16;;;5.24;47.17
32875;BME280;40468;42.128;24.750;2023-03-12T04:58:28;98997.06;;;5.24;47.10
32875;BME280;40468;42.128;24.750;2023-03-12T05:00:01;98997.06;;;5.24;47.11
32875;BME280;40468;42.128;24.750;2023-03-12T05:01:39;98994.50;;;5.24;47.14
32875;BME280;40468;42.128;24.750;2023-03-12T05:03:10;98998.75;;;5.25;47.05
32875;BME280;40468;42.128;24.750;2023-03-12T05:04:43;99001.34;;;5.25;46.97
32875;BME280;40468;42.128;24.750;2023-03-12T05:06:14;99004.72;;;5.28;46.72
32875;BME280;40468;42.128;24.750;2023-03-12T05:07:46;98994.31;;;5.29;46.73
32875;BME280;40468;42.128;24.750;2023-03-12T05:09:18;99003.69;;;5.32;46.67
32875;BME280;40468;42.128;24.750;2023-03-12T05:10:49;99013.13;;;5.33;46.35
32875;BME280;40468;42.128;24.750;2023-03-12T05:12:21;99013.97;;;5.33;46.30
32875;BME280;40468;42.128;24.750;2023-03-12T05:13:53;99021.72;;;5.33;46.18
32875;BME280;40468;42.128;24.750;2023-03-12T05:15:26;99030.22;;;5.35;46.09
32875;BME280;40468;42.128;24.750;2023-03-12T05:16:58;99031.09;;;5.36;46.17
32875;BME280;40468;42.128;24.750;2023-03-12T05:18:30;99027.59;;;5.37;46.15
32875;BME280;40468;42.128;24.750;2023-03-12T05:20:02;99029.28;;;5.38;46.08
32875;BME280;40468;42.128;24.750;2023-03-12T05:21:35;99038.66;;;5.40;46.25
32875;BME280;40468;42.128;24.750;2023-03-12T05:23:07;99029.25;;;5.39;46.12
32875;BME280;40468;42.128;24.750;2023-03-12T05:24:38;99039.38;;;5.44;46.07
32875;BME280;40468;42.128;24.750;2023-03-12T05:26:15;99048.03;;;5.43;45.91
32875;BME280;40468;42.128;24.750;2023-03-12T05:27:47;99040.28;;;5.43;45.79
32875;BME280;40468;42.128;24.750;2023-03-12T05:29:19;99045.41;;;5.44;45.72
32875;BME280;40468;42.128;24.750;2023-03-12T05:30:52;99049.72;;;5.44;45.57
32875;BME280;40468;42.128;24.750;2023-03-12T05:32:24;99041.94;;;5.45;45.77
32875;BME280;40468;42.128;24.750;2023-03-12T05:33:55;99059.09;;;5.46;45.89
32875;BME280;40468;42.128;24.750;2023-03-12T05:35:27;99048.72;;;5.48;45.91
32875;BME280;40468;42.128;24.750;2023-03-12T05:36:59;99050.41;;;5.49;45.83
32875;BME280;40468;42.128;24.750;2023-03-12T05:38:30;99050.41;;;5.49;45.88
32875;BME280;40468;42.128;24.750;2023-03-12T05:40:02;99049.59;;;5.47;45.74
32875;BME280;40468;42.128;24.750;2023-03-12T05:41:36;99053.09;;;5.46;45.70
32875;BME280;40468;42.128;24.750;2023-03-12T05:43:08;99059.94;;;5.47;45.59
32875;BME280;40468;42.128;24.750;2023-03-12T05:44:40;99055.66;;;5.46;45.59
32875;BME280;40468;42.128;24.750;2023-03-12T05:46:14;99059.09;;;5.46;45.54
32875;BME280;40468;42.128;24.750;2023-03-12T05:47:46;99057.34;;;5.47;45.44
32875;BME280;40468;42.128;24.750;2023-03-12T05:49:18;99068.47;;;5.49;45.30
32875;BME280;40468;42.128;24.750;2023-03-12T05:50:49;99070.16;;;5.50;45.37
32875;BME280;40468;42.128;24.750;2023-03-12T05:52:21;99066.72;;;5.50;45.23
32875;BME280;40468;42.128;24.750;2023-03-12T05:53:53;99072.69;;;5.52;45.33
32875;BME280;40468;42.128;24.750;2023-03-12T05:55:24;99082.13;;;5.53;45.10
32875;BME280;40468;42.128;24.750;2023-03-12T05:56:56;99082.19;;;5.51;45.03
32875;BME280;40468;42.128;24.750;2023-03-12T05:58:28;99082.97;;;5.53;44.93
32875;BME280;40468;42.128;24.750;2023-03-12T06:00:00;99080.31;;;5.55;45.04
32875;BME280;40468;42.128;24.750;2023-03-12T06:01:33;99088.75;;;5.60;45.16
32875;BME280;40468;42.128;24.750;2023-03-12T06:03:03;99089.53;;;5.62;44.93
32875;BME280;40468;42.128;24.750;2023-03-12T06:04:35;99094.59;;;5.65;44.99
32875;BME280;40468;42.128;24.750;2023-03-12T06:06:06;99096.97;;;5.71;45.07
32875;BME280;40468;42.128;24.750;2023-03-12T06:07:38;99097.69;;;5.75;44.82
32875;BME280;40468;42.128;24.750;2023-03-12T06:09:15;99102.78;;;5.76;44.50
32875;BME280;40468;42.128;24.750;2023-03-12T06:10:49;99114.81;;;5.77;44.44
32875;BME280;40468;42.128;24.750;2023-03-12T06:12:21;99112.13;;;5.80;44.59
32875;BME280;40468;42.128;24.750;2023-03-12T06:13:53;99123.19;;;5.84;44.50
32875;BME280;40468;42.128;24.750;2023-03-12T06:15:24;99118.63;;;5.90;44.48
32875;BME280;40468;42.128;24.750;2023-03-12T06:16:58;99121.84;;;5.97;44.24
32875;BME280;40468;42.128;24.750;2023-03-12T06:18:30;99130.16;;;6.05;44.20
32875;BME280;40468;42.128;24.750;2023-03-12T06:20:02;99124.75;;;6.11;44.13
32875;BME280;40468;42.128;24.750;2023-03-12T06:21:34;99130.50;;;6.20;44.25
32875;BME280;40468;42.128;24.750;2023-03-12T06:23:06;99141.28;;;6.31;44.23
32875;BME280;40468;42.128;24.750;2023-03-12T06:24:38;99135.66;;;6.42;44.13
32875;BME280;40468;42.128;24.750;2023-03-12T06:26:11;99138.06;;;6.48;43.92
32875;BME280;40468;42.128;24.750;2023-03-12T06:27:43;99139.47;;;6.55;43.69
32875;BME280;40468;42.128;24.750;2023-03-12T06:29:15;99158.19;;;6.61;43.48
32875;BME280;40468;42.128;24.750;2023-03-12T06:30:47;99143.22;;;6.70;43.43
32875;BME280;40468;42.128;24.750;2023-03-12T06:32:20;99143.78;;;6.76;43.16
32875;BME280;40468;42.128;24.750;2023-03-12T06:33:52;99138.25;;;6.86;42.90
32875;BME280;40468;42.128;24.750;2023-03-12T06:35:23;99142.09;;;6.97;42.82
32875;BME280;40468;42.128;24.750;2023-03-12T06:36:55;99147.66;;;7.09;42.65
32875;BME280;40468;42.128;24.750;2023-03-12T06:38:27;99146.72;;;7.32;42.65
32875;BME280;40468;42.128;24.750;2023-03-12T06:39:59;99150.06;;;7.54;42.68
32875;BME280;40468;42.128;24.750;2023-03-12T06:41:30;99153.13;;;7.83;42.31
32875;BME280;40468;42.128;24.750;2023-03-12T06:43:03;99148.53;;;8.08;41.74
32875;BME280;40468;42.128;24.750;2023-03-12T06:44:41;99163.66;;;8.36;40.57
32875;BME280;40468;42.128;24.750;2023-03-12T06:46:13;99164.41;;;8.59;40.41
32875;BME280;40468;42.128;24.750;2023-03-12T06:47:47;99166.50;;;8.87;40.06
32875;BME280;40468;42.128;24.750;2023-03-12T06:49:19;99175.78;;;9.10;39.71
32875;BME280;40468;42.128;24.750;2023-03-12T06:50:50;99173.81;;;9.32;38.63
32875;BME280;40468;42.128;24.750;2023-03-12T06:52:22;99182.28;;;9.53;37.95
32875;BME280;40468;42.128;24.750;2023-03-12T06:53:54;99169.66;;;9.63;36.83
32875;BME280;40468;42.128;24.750;2023-03-12T06:55:25;99176.44;;;9.83;36.94
32875;BME280;40468;42.128;24.750;2023-03-12T06:56:57;99174.28;;;10.07;36.56
32875;BME280;40468;42.128;24.750;2023-03-12T06:58:29;99165.94;;;10.18;36.02
32875;BME280;40468;42.128;24.750;2023-03-12T07:00:01;99182.75;;;10.28;35.54
32875;BME280;40468;42.128;24.750;2023-03-12T07:01:33;99181.16;;;10.08;34.88
32875;BME280;40468;42.128;24.750;2023-03-12T07:03:06;99187.34;;;9.90;34.96
32875;BME280;40468;42.128;24.750;2023-03-12T07:04:37;99182.25;;;9.71;35.04
32875;BME280;40468;42.128;24.750;2023-03-12T07:06:11;99189.94;;;9.56;34.93
32875;BME280;40468;42.128;24.750;2023-03-12T07:07:43;99183.66;;;9.43;34.93
32875;BME280;40468;42.128;24.750;2023-03-12T07:09:15;99195.66;;;9.46;34.56
32875;BME280;40468;42.128;24.750;2023-03-12T07:10:46;99200.75;;;9.82;34.60
32875;BME280;40468;42.128;24.750;2023-03-12T07:12:18;99207.47;;;10.19;34.57
32875;BME280;40468;42.128;24.750;2023-03-12T07:13:50;99189.97;;;10.55;34.10
32875;BME280;40468;42.128;24.750;2023-03-12T07:15:22;99205.06;;;10.96;33.61
32875;BME280;40468;42.128;24.750;2023-03-12T07:16:54;99207.28;;;11.33;33.53
32875;BME280;40468;42.128;24.750;2023-03-12T07:18:28;99187.31;;;11.63;32.76
32875;BME280;40468;42.128;24.750;2023-03-12T07:20:00;99193.88;;;11.84;31.66
32875;BME280;40468;42.128;24.750;2023-03-12T07:21:32;99192.13;;;11.99;31.69
32875;BME280;40468;42.128;24.750;2023-03-12T07:23:03;99205.44;;;12.23;31.30
32875;BME280;40468;42.128;24.750;2023-03-12T07:24:35;99200.50;;;12.18;30.79
32875;BME280;40468;42.128;24.750;2023-03-12T07:26:07;99184.56;;;11.94;30.55
32875;BME280;40468;42.128;24.750;2023-03-12T07:27:39;99184.44;;;11.81;31.12
32875;BME280;40468;42.128;24.750;2023-03-12T07:29:10;99189.00;;;11.64;30.84
32875;BME280;40468;42.128;24.750;2023-03-12T07:30:42;99182.09;;;11.48;30.79
32875;BME280;40468;42.128;24.750;2023-03-12T07:32:19;99187.19;;;11.50;31.44
32875;BME280;40468;42.128;24.750;2023-03-12T07:33:52;99186.03;;;11.70;30.69
32875;BME280;40468;42.128;24.750;2023-03-12T07:35:24;99172.91;;;11.86;30.42
32875;BME280;40468;42.128;24.750;2023-03-12T07:36:55;99178.16;;;12.00;29.71
32875;BME280;40468;42.128;24.750;2023-03-12T07:38:27;99164.25;;;12.14;29.17
32875;BME280;40468;42.128;24.750;2023-03-12T07:39:59;99172.16;;;12.26;29.00
32875;BME280;40468;42.128;24.750;2023-03-12T07:41:30;99153.13;;;12.39;29.10
32875;BME280;40468;42.128;24.750;2023-03-12T07:43:02;99161.47;;;12.58;29.03
32875;BME280;40468;42.128;24.750;2023-03-12T07:44:40;99174.50;;;12.72;28.33
32875;BME280;40468;42.128;24.750;2023-03-12T07:46:11;99151.66;;;12.89;28.43
32875;BME280;40468;42.128;24.750;2023-03-12T07:47:43;99165.22;;;13.21;28.36
32875;BME280;40468;42.128;24.750;2023-03-12T07:49:18;99171.91;;;13.52;28.30
32875;BME280;40468;42.128;24.750;2023-03-12T07:50:50;99148.16;;;13.68;27.75
32875;BME280;40468;42.128;24.750;2023-03-12T07:52:22;99174.53;;;13.91;27.17
32875;BME280;40468;42.128;24.750;2023-03-12T07:53:53;99188.03;;;13.97;26.67
32875;BME280;40468;42.128;24.750;2023-03-12T07:55:25;99174.97;;;13.84;26.57
32875;BME280;40468;42.128;24.750;2023-03-12T07:56:57;99186.97;;;13.74;26.34
32875;BME280;40468;42.128;24.750;2023-03-12T07:58:29;99187.81;;;13.62;26.84
32875;BME280;40468;42.128;24.750;2023-03-12T08:00:00;99173.91;;;13.61;27.32
32875;BME280;40468;42.128;24.750;2023-03-12T08:01:34;99189.50;;;13.76;27.08
32875;BME280;40468;42.128;24.750;2023-03-12T08:03:06;99190.97;;;13.93;27.35
32875;BME280;40468;42.128;24.750;2023-03-12T08:04:39;99195.97;;;14.21;27.19
32875;BME280;40468;42.128;24.750;2023-03-12T08:06:11;99202.84;;;14.48;27.40
32875;BME280;40468;42.128;24.750;2023-03-12T08:07:42;99203.28;;;14.78;27.08
32875;BME280;40468;42.128;24.750;2023-03-12T08:09:14;99213.06;;;15.00;27.17
32875;BME280;40468;42.128;24.750;2023-03-12T08:10:46;99200.78;;;15.25;26.69